createdAt,value
2019-01-11T00:00:27.592Z,-0.10
2019-01-11T00:02:29.022Z,-0.10
2019-01-11T00:04:30.409Z,-0.10
2019-01-11T00:06:31.792Z,-0.20
2019-01-11T00:08:33.220Z,-0.20
2019-01-11T00:10:34.603Z,-0.20
2019-01-11T00:12:35.975Z,-0.20
2019-01-11T00:14:37.409Z,-0.20
2019-01-11T00:16:38.777Z,-0.20
2019-01-11T00:18:40.136Z,-0.20
2019-01-11T00:20:41.680Z,-0.20
2019-01-11T00:22:43.075Z,-0.20
2019-01-11T00:24:44.460Z,-0.20
2019-01-11T00:26:45.967Z,-0.20
2019-01-11T00:28:47.561Z,-0.10
2019-01-11T00:30:48.952Z,-0.10
2019-01-11T00:32:50.374Z,-0.10
2019-01-11T00:34:51.757Z,-0.20
2019-01-11T00:36:53.146Z,-0.20
2019-01-11T00:38:54.596Z,-0.20
2019-01-11T00:40:55.989Z,-0.20
2019-01-11T00:42:57.473Z,-0.20
2019-01-11T00:44:58.883Z,-0.20
2019-01-11T00:47:00.497Z,-0.10
2019-01-11T00:49:01.887Z,-0.10
2019-01-11T00:51:03.390Z,-0.20
2019-01-11T00:53:04.960Z,-0.20
2019-01-11T00:55:07.419Z,-0.20
2019-01-11T00:57:08.804Z,-0.20
2019-01-11T00:59:10.236Z,-0.20
2019-01-11T01:01:12.130Z,-0.10
2019-01-11T01:03:13.508Z,-0.10
2019-01-11T01:05:15.078Z,-0.10
2019-01-11T01:07:17.152Z,-0.10
2019-01-11T01:09:18.741Z,-0.10
2019-01-11T01:11:20.202Z,-0.10
2019-01-11T01:13:21.620Z,-0.10
2019-01-11T01:15:23.011Z,-0.20
2019-01-11T01:17:24.407Z,-0.20
2019-01-11T01:19:25.812Z,-0.20
2019-01-11T01:21:27.174Z,-0.20
2019-01-11T01:23:28.546Z,-0.20
2019-01-11T01:25:31.006Z,-0.10
2019-01-11T01:27:32.369Z,-0.10
2019-01-11T01:29:33.844Z,-0.10
2019-01-11T01:31:35.474Z,-0.10
2019-01-11T01:33:36.901Z,-0.10
2019-01-11T01:35:38.325Z,-0.10
2019-01-11T01:37:39.776Z,-0.10
2019-01-11T01:39:41.132Z,-0.20
2019-01-11T01:41:42.503Z,-0.20
2019-01-11T01:43:43.959Z,-0.10
2019-01-11T01:45:45.426Z,-0.10
2019-01-11T01:47:46.963Z,-0.10
2019-01-11T01:49:48.401Z,-0.10
2019-01-11T01:51:49.767Z,-0.10
2019-01-11T01:53:51.184Z,-0.10
2019-01-11T01:55:52.578Z,-0.10
2019-01-11T01:57:54.219Z,-0.10
2019-01-11T01:59:55.920Z,-0.10
2019-01-11T02:01:57.318Z,-0.10
2019-01-11T02:03:58.683Z,-0.10
2019-01-11T02:06:00.107Z,-0.10
2019-01-11T02:08:01.475Z,-0.10
2019-01-11T02:10:07.714Z,-0.20
2019-01-11T02:12:09.096Z,-0.10
2019-01-11T02:14:10.465Z,-0.10
2019-01-11T02:16:12.008Z,-0.10
2019-01-11T02:18:13.389Z,-0.10
2019-01-11T02:20:16.171Z,-0.10
2019-01-11T02:22:17.626Z,-0.10
2019-01-11T02:24:18.999Z,-0.10
2019-01-11T02:26:20.438Z,-0.10
2019-01-11T02:28:21.820Z,-0.10
2019-01-11T02:30:23.200Z,-0.10
2019-01-11T02:32:24.849Z,-0.10
2019-01-11T02:34:26.229Z,-0.10
2019-01-11T02:36:27.715Z,-0.10
2019-01-11T02:38:29.410Z,-0.10
2019-01-11T02:40:30.785Z,-0.10
2019-01-11T02:42:32.160Z,-0.10
2019-01-11T02:44:33.588Z,-0.10
2019-01-11T02:46:34.972Z,-0.10
2019-01-11T02:48:36.463Z,-0.10
2019-01-11T02:50:37.861Z,-0.10
2019-01-11T02:52:39.253Z,-0.10
2019-01-11T02:54:40.706Z,-0.10
2019-01-11T02:56:42.059Z,-0.10
2019-01-11T02:58:43.422Z,-0.10
2019-01-11T03:00:44.872Z,-0.10
2019-01-11T03:02:46.645Z,-0.10
2019-01-11T03:04:48.040Z,-0.10
2019-01-11T03:06:49.726Z,-0.10
2019-01-11T03:08:51.130Z,-0.10
2019-01-11T03:10:53.194Z,-0.10
2019-01-11T03:12:54.772Z,-0.10
2019-01-11T03:14:56.156Z,-0.10
2019-01-11T03:16:57.529Z,-0.10
2019-01-11T03:18:59.196Z,-0.10
2019-01-11T03:21:00.674Z,-0.10
2019-01-11T03:23:02.053Z,-0.10
2019-01-11T03:25:06.708Z,-0.10
2019-01-11T03:27:08.081Z,-0.10
2019-01-11T03:29:09.461Z,-0.10
2019-01-11T03:31:13.074Z,-0.10
2019-01-11T03:33:14.464Z,-0.10
2019-01-11T03:35:17.065Z,-0.10
2019-01-11T03:37:18.638Z,-0.10
2019-01-11T03:39:20.023Z,0.00
2019-01-11T03:41:21.490Z,0.00
2019-01-11T03:43:22.942Z,0.00
2019-01-11T03:45:24.629Z,0.00
2019-01-11T03:47:26.102Z,0.00
2019-01-11T03:49:27.650Z,0.00
2019-01-11T03:51:29.045Z,0.00
2019-01-11T03:53:30.478Z,0.00
2019-01-11T03:55:31.864Z,0.00
2019-01-11T03:57:33.253Z,0.00
2019-01-11T03:59:34.671Z,0.00
2019-01-11T04:01:36.061Z,0.00
2019-01-11T04:03:37.442Z,0.00
2019-01-11T04:05:38.875Z,0.00
2019-01-11T04:07:40.266Z,-0.10
2019-01-11T04:09:41.631Z,-0.10
2019-01-11T04:11:43.231Z,-0.10
2019-01-11T04:13:44.621Z,-0.10
2019-01-11T04:15:46.005Z,-0.10
2019-01-11T04:17:53.411Z,-0.10
2019-01-11T04:20:01.720Z,-0.10
2019-01-11T04:22:08.806Z,-0.10
2019-01-11T04:24:10.504Z,-0.10
2019-01-11T04:26:11.893Z,-0.10
2019-01-11T04:28:13.389Z,-0.10
2019-01-11T04:30:15.973Z,-0.10
2019-01-11T04:32:17.358Z,-0.10
2019-01-11T04:34:19.031Z,-0.10
2019-01-11T04:36:20.471Z,-0.10
2019-01-11T04:38:21.901Z,-0.10
2019-01-11T04:40:23.321Z,-0.10
2019-01-11T04:42:24.789Z,-0.10
2019-01-11T04:44:26.263Z,-0.10
2019-01-11T04:46:27.646Z,-0.10
2019-01-11T04:48:29.625Z,-0.10
2019-01-11T04:50:31.125Z,-0.10
2019-01-11T04:52:32.500Z,-0.10
2019-01-11T04:54:33.927Z,-0.10
2019-01-11T04:56:35.318Z,-0.10
2019-01-11T04:58:36.708Z,-0.10
2019-01-11T05:00:38.397Z,-0.10
2019-01-11T05:02:39.785Z,-0.10
2019-01-11T05:04:41.214Z,-0.10
2019-01-11T05:06:42.627Z,-0.10
2019-01-11T05:08:44.021Z,-0.10
2019-01-11T05:10:45.441Z,-0.10
2019-01-11T05:12:47.047Z,-0.10
2019-01-11T05:14:48.553Z,-0.10
2019-01-11T05:16:49.943Z,-0.10
2019-01-11T05:18:51.337Z,-0.10
2019-01-11T05:20:52.712Z,-0.10
2019-01-11T05:22:54.098Z,-0.20
2019-01-11T05:24:55.515Z,-0.20
2019-01-11T05:26:56.893Z,-0.10
2019-01-11T05:28:58.269Z,-0.10
2019-01-11T05:30:59.772Z,-0.10
2019-01-11T05:33:01.177Z,-0.10
2019-01-11T05:35:04.859Z,-0.10
2019-01-11T05:37:06.373Z,-0.10
2019-01-11T05:39:07.765Z,-0.10
2019-01-11T05:41:09.186Z,-0.10
2019-01-11T05:43:10.567Z,-0.10
2019-01-11T05:45:12.162Z,-0.10
2019-01-11T05:47:15.632Z,-0.10
2019-01-11T05:49:17.005Z,-0.10
2019-01-11T05:51:18.459Z,-0.10
2019-01-11T05:53:20.086Z,-0.10
2019-01-11T05:55:23.630Z,-0.10
2019-01-11T05:57:25.032Z,-0.10
2019-01-11T05:59:26.401Z,-0.10
2019-01-11T06:01:27.958Z,-0.10
2019-01-11T06:03:29.374Z,-0.10
2019-01-11T06:05:30.767Z,-0.10
2019-01-11T06:07:32.282Z,-0.10
2019-01-11T06:09:33.649Z,-0.10
2019-01-11T06:11:35.037Z,-0.10
2019-01-11T06:13:36.471Z,-0.10
2019-01-11T06:15:38.199Z,-0.10
2019-01-11T06:17:39.676Z,-0.10
2019-01-11T06:19:41.090Z,-0.10
2019-01-11T06:21:42.492Z,-0.10
2019-01-11T06:23:43.912Z,-0.10
2019-01-11T06:25:45.436Z,-0.10
2019-01-11T06:27:46.884Z,-0.10
2019-01-11T06:29:48.564Z,-0.10
2019-01-11T06:31:49.934Z,0.00
2019-01-11T06:33:51.332Z,-0.10
2019-01-11T06:35:52.846Z,-0.10
2019-01-11T06:37:54.263Z,-0.10
2019-01-11T06:39:55.697Z,0.00
2019-01-11T06:41:58.982Z,0.00
2019-01-11T06:44:00.356Z,-0.10
2019-01-11T06:46:01.783Z,-0.10
2019-01-11T06:48:06.070Z,0.00
2019-01-11T06:50:12.638Z,0.00
2019-01-11T06:52:14.254Z,0.00
2019-01-11T06:54:15.650Z,-0.10
2019-01-11T06:56:17.128Z,-0.10
2019-01-11T06:58:18.644Z,-0.10
2019-01-11T07:00:20.126Z,-0.10
2019-01-11T07:02:22.432Z,-0.10
2019-01-11T07:04:23.903Z,-0.10
2019-01-11T07:06:25.338Z,-0.10
2019-01-11T07:08:27.022Z,0.00
2019-01-11T07:10:28.403Z,0.00
2019-01-11T07:12:29.799Z,-0.10
2019-01-11T07:14:31.200Z,-0.10
2019-01-11T07:16:32.571Z,-0.10
2019-01-11T07:18:33.974Z,-0.10
2019-01-11T07:20:35.344Z,-0.10
2019-01-11T07:22:36.727Z,0.00
2019-01-11T07:24:38.140Z,-0.10
2019-01-11T07:26:39.501Z,0.00
2019-01-11T07:28:40.873Z,0.00
2019-01-11T07:30:44.198Z,0.00
2019-01-11T07:32:45.586Z,-0.10
2019-01-11T07:34:46.973Z,-0.10
2019-01-11T07:36:48.377Z,0.00
2019-01-11T07:38:49.763Z,0.00
2019-01-11T07:40:51.127Z,0.00
2019-01-11T07:42:52.549Z,0.00
2019-01-11T07:44:53.925Z,-0.10
2019-01-11T07:46:55.807Z,-0.10
2019-01-11T07:48:57.217Z,0.00
2019-01-11T07:50:58.569Z,0.00
2019-01-11T07:52:59.957Z,0.00
2019-01-11T07:55:01.464Z,0.00
2019-01-11T07:57:03.055Z,0.00
2019-01-11T07:59:04.581Z,0.00
2019-01-11T08:01:06.494Z,-0.10
2019-01-11T08:03:07.859Z,0.00
2019-01-11T08:05:09.469Z,0.00
2019-01-11T08:07:10.824Z,0.00
2019-01-11T08:09:12.314Z,0.00
2019-01-11T08:11:13.925Z,0.00
2019-01-11T08:13:15.314Z,0.00
2019-01-11T08:15:17.094Z,0.10
2019-01-11T08:17:18.743Z,0.10
2019-01-11T08:19:20.125Z,0.10
2019-01-11T08:21:21.508Z,0.10
2019-01-11T08:23:22.929Z,0.10
2019-01-11T08:25:24.313Z,0.10
2019-01-11T08:27:25.801Z,0.10
2019-01-11T08:29:27.231Z,0.10
2019-01-11T08:31:34.558Z,0.10
2019-01-11T08:33:32.110Z,0.10
2019-01-11T08:35:33.488Z,0.10
2019-01-11T08:37:35.026Z,0.10
2019-01-11T08:39:36.409Z,0.10
2019-01-11T08:41:37.822Z,0.10
2019-01-11T08:43:39.405Z,0.10
2019-01-11T08:45:40.825Z,0.20
2019-01-11T08:47:42.196Z,0.20
2019-01-11T08:49:43.584Z,0.10
2019-01-11T08:51:45.018Z,0.20
2019-01-11T08:53:46.395Z,0.20
2019-01-11T08:55:47.778Z,0.20
2019-01-11T08:57:49.199Z,0.20
2019-01-11T08:59:50.610Z,0.20
2019-01-11T09:01:51.990Z,0.20
2019-01-11T09:03:53.423Z,0.20
2019-01-11T09:05:54.795Z,0.20
2019-01-11T09:07:56.208Z,0.20
2019-01-11T09:09:57.854Z,0.30
2019-01-11T09:11:59.229Z,0.20
2019-01-11T09:14:00.928Z,0.30
2019-01-11T09:16:03.125Z,0.30
2019-01-11T09:18:12.039Z,0.30
2019-01-11T09:20:13.551Z,0.30
2019-01-11T09:22:15.204Z,0.30
2019-01-11T09:24:16.582Z,0.30
2019-01-11T09:26:17.977Z,0.30
2019-01-11T09:28:19.394Z,0.30
2019-01-11T09:30:20.777Z,0.40
2019-01-11T09:32:22.745Z,0.30
2019-01-11T09:34:24.185Z,0.30
2019-01-11T09:36:25.578Z,0.30
2019-01-11T09:38:27.001Z,0.40
2019-01-11T09:40:28.454Z,0.40
2019-01-11T09:42:29.869Z,0.30
2019-01-11T09:44:31.234Z,0.40
2019-01-11T09:46:32.650Z,0.40
2019-01-11T09:48:34.016Z,0.40
2019-01-11T09:50:35.408Z,0.40
2019-01-11T09:52:36.816Z,0.40
2019-01-11T09:54:38.214Z,0.40
2019-01-11T09:56:39.611Z,0.40
2019-01-11T09:58:41.003Z,0.40
2019-01-11T10:00:43.122Z,0.40
2019-01-11T10:02:46.047Z,0.40
2019-01-11T10:04:47.426Z,0.40
2019-01-11T10:06:53.365Z,0.40
2019-01-11T10:08:54.785Z,0.40
2019-01-11T10:10:56.163Z,0.40
2019-01-11T10:12:57.534Z,0.40
2019-01-11T10:14:58.947Z,0.40
2019-01-11T10:17:00.368Z,0.50
2019-01-11T10:19:01.754Z,0.50
2019-01-11T10:21:03.334Z,0.50
2019-01-11T10:23:04.942Z,0.50
2019-01-11T10:25:10.087Z,0.50
2019-01-11T10:27:11.495Z,0.50
2019-01-11T10:29:12.871Z,0.50
2019-01-11T10:31:14.252Z,0.60
2019-01-11T10:33:15.655Z,0.60
2019-01-11T10:35:17.028Z,0.60
2019-01-11T10:37:18.422Z,0.60
2019-01-11T10:39:20.094Z,0.60
2019-01-11T10:41:21.470Z,0.60
2019-01-11T10:43:22.969Z,0.70
2019-01-11T10:45:24.350Z,0.70
2019-01-11T10:47:25.731Z,0.70
2019-01-11T10:49:27.136Z,0.70
2019-01-11T10:51:28.554Z,0.70
2019-01-11T10:53:29.956Z,0.70
2019-01-11T10:55:31.321Z,0.70
2019-01-11T10:57:32.746Z,0.70
2019-01-11T10:59:34.208Z,0.70
2019-01-11T11:01:35.697Z,0.80
2019-01-11T11:03:37.302Z,0.80
2019-01-11T11:05:38.681Z,0.80
2019-01-11T11:07:40.065Z,0.80
2019-01-11T11:09:41.492Z,0.80
2019-01-11T11:11:42.869Z,0.80
2019-01-11T11:13:44.758Z,0.90
2019-01-11T11:15:47.580Z,0.90
2019-01-11T11:17:48.963Z,0.90
2019-01-11T11:19:50.324Z,1.00
2019-01-11T11:21:51.737Z,1.00
2019-01-11T11:23:54.152Z,0.90
2019-01-11T11:25:55.604Z,0.90
2019-01-11T11:27:57.254Z,1.00
2019-01-11T11:29:58.635Z,1.00
2019-01-11T11:32:00.037Z,1.00
2019-01-11T11:34:01.460Z,1.10
2019-01-11T11:36:03.553Z,1.10
2019-01-11T11:38:05.031Z,1.10
2019-01-11T11:40:08.095Z,1.10
2019-01-11T11:42:09.498Z,1.10
2019-01-11T11:44:10.999Z,1.10
2019-01-11T11:46:12.526Z,1.20
2019-01-11T11:48:13.954Z,1.20
2019-01-11T11:50:15.379Z,1.20
2019-01-11T11:52:16.797Z,1.20
2019-01-11T11:54:18.193Z,1.30
2019-01-11T11:56:19.970Z,1.30
2019-01-11T11:58:21.375Z,1.30
2019-01-11T12:00:23.760Z,1.30
2019-01-11T12:02:25.153Z,1.40
2019-01-11T12:04:26.627Z,1.30
2019-01-11T12:06:28.001Z,1.40
2019-01-11T12:08:29.401Z,1.40
2019-01-11T12:10:30.835Z,1.40
2019-01-11T12:12:32.254Z,1.40
2019-01-11T12:14:33.654Z,1.40
2019-01-11T12:16:35.056Z,1.50
2019-01-11T12:18:36.439Z,1.50
2019-01-11T12:20:37.923Z,1.50
2019-01-11T12:22:39.951Z,1.50
2019-01-11T12:24:41.457Z,1.50
2019-01-11T12:26:43.088Z,1.50
2019-01-11T12:28:44.472Z,1.60
2019-01-11T12:30:45.860Z,1.60
2019-01-11T12:32:47.332Z,1.60
2019-01-11T12:34:48.821Z,1.60
2019-01-11T12:36:50.196Z,1.60
2019-01-11T12:38:51.619Z,1.60
2019-01-11T12:40:52.999Z,1.60
2019-01-11T12:42:54.389Z,1.70
2019-01-11T12:44:55.963Z,1.70
2019-01-11T12:46:57.356Z,1.70
2019-01-11T12:48:58.735Z,1.80
2019-01-11T12:51:00.183Z,1.80
2019-01-11T12:53:01.575Z,1.90
2019-01-11T12:55:04.063Z,1.90
2019-01-11T12:57:05.518Z,1.90
2019-01-11T12:59:06.902Z,1.90
2019-01-11T13:01:08.396Z,1.90
2019-01-11T13:03:09.907Z,1.90
2019-01-11T13:05:17.186Z,2.00
2019-01-11T13:07:18.604Z,2.00
2019-01-11T13:09:20.154Z,2.00
2019-01-11T13:11:21.543Z,2.00
2019-01-11T13:13:22.931Z,2.00
2019-01-11T13:15:24.359Z,2.00
2019-01-11T13:17:25.764Z,2.10
2019-01-11T13:19:27.159Z,2.10
2019-01-11T13:21:28.682Z,2.10
2019-01-11T13:23:30.110Z,2.20
2019-01-11T13:25:32.245Z,2.20
2019-01-11T13:27:33.903Z,2.20
2019-01-11T13:29:35.337Z,2.30
2019-01-11T13:31:36.793Z,2.30
2019-01-11T13:33:38.167Z,2.40
2019-01-11T13:35:39.557Z,2.40
2019-01-11T13:37:41.323Z,2.40
2019-01-11T13:39:42.725Z,2.50
2019-01-11T13:41:44.098Z,2.50
2019-01-11T13:43:45.741Z,2.50
2019-01-11T13:45:47.226Z,2.50
2019-01-11T13:47:48.602Z,2.60
2019-01-11T13:49:50.048Z,2.60
2019-01-11T13:51:51.440Z,2.60
2019-01-11T13:53:52.825Z,2.70
2019-01-11T13:55:54.237Z,2.70
2019-01-11T13:57:55.621Z,2.70
2019-01-11T13:59:57.071Z,2.70
2019-01-11T14:01:58.451Z,2.80
2019-01-11T14:03:59.855Z,2.80
2019-01-11T14:06:01.324Z,2.80
2019-01-11T14:08:02.916Z,2.80
2019-01-11T14:10:05.325Z,2.80
2019-01-11T14:12:06.756Z,2.90
2019-01-11T14:14:08.143Z,2.90
2019-01-11T14:16:09.609Z,2.90
2019-01-11T14:18:11.123Z,2.90
2019-01-11T14:20:12.703Z,3.00
2019-01-11T14:22:14.165Z,3.00
2019-01-11T14:24:15.542Z,3.00
2019-01-11T14:26:16.919Z,3.10
2019-01-11T14:28:18.381Z,3.10
2019-01-11T14:30:20.213Z,3.10
2019-01-11T14:32:21.601Z,3.10
2019-01-11T14:34:22.970Z,3.10
2019-01-11T14:36:24.735Z,3.10
2019-01-11T14:38:26.166Z,3.10
2019-01-11T14:40:29.453Z,3.10
2019-01-11T14:42:31.293Z,3.10
2019-01-11T14:44:32.667Z,3.10
2019-01-11T14:46:34.037Z,3.10
2019-01-11T14:48:35.490Z,3.10
2019-01-11T14:50:36.892Z,3.20
2019-01-11T14:52:38.335Z,3.20
2019-01-11T14:54:39.713Z,3.20
2019-01-11T14:56:41.199Z,3.20
2019-01-11T14:58:42.648Z,3.20
2019-01-11T15:00:44.044Z,3.20
2019-01-11T15:02:45.469Z,3.20
2019-01-11T15:04:47.190Z,3.20
2019-01-11T15:06:48.625Z,3.20
2019-01-11T15:08:50.005Z,3.30
2019-01-11T15:10:51.455Z,3.30
2019-01-11T15:12:52.824Z,3.30
2019-01-11T15:14:54.189Z,3.30
2019-01-11T15:16:55.841Z,3.30
2019-01-11T15:18:57.228Z,3.30
2019-01-11T15:20:58.620Z,3.30
2019-01-11T15:23:00.055Z,3.30
2019-01-11T15:25:01.453Z,3.40
2019-01-11T15:27:03.043Z,3.40
2019-01-11T15:29:04.696Z,3.40
2019-01-11T15:31:06.105Z,3.40
2019-01-11T15:33:07.864Z,3.40
2019-01-11T15:35:09.539Z,3.40
2019-01-11T15:37:11.205Z,3.50
2019-01-11T15:39:13.074Z,3.50
2019-01-11T15:41:14.695Z,3.50
2019-01-11T15:43:16.248Z,3.50
2019-01-11T15:45:17.946Z,3.50
2019-01-11T15:47:19.617Z,3.60
2019-01-11T15:49:21.229Z,3.60
2019-01-11T15:51:23.117Z,3.60
2019-01-11T15:53:32.642Z,3.60
2019-01-11T15:55:34.371Z,3.60
2019-01-11T15:57:41.862Z,3.60
2019-01-11T16:00:01.422Z,3.60
2019-01-11T16:02:03.109Z,3.70
2019-01-11T16:04:05.227Z,3.70
2019-01-11T16:06:28.010Z,3.70
2019-01-11T16:08:29.509Z,3.70
2019-01-11T16:10:31.616Z,3.70
2019-01-11T16:12:33.192Z,3.70
2019-01-11T16:15:07.229Z,3.70
2019-01-11T16:17:14.448Z,3.80
2019-01-11T16:19:16.274Z,3.80
2019-01-11T16:21:18.689Z,3.80
2019-01-11T16:23:20.291Z,3.90
2019-01-11T16:25:21.678Z,3.90
2019-01-11T16:27:23.072Z,3.90
2019-01-11T16:29:24.955Z,3.90
2019-01-11T16:31:26.389Z,3.90
2019-01-11T16:33:27.830Z,3.90
2019-01-11T16:35:29.567Z,3.90
2019-01-11T16:37:30.965Z,4.00
2019-01-11T16:39:32.337Z,4.00
2019-01-11T16:41:33.966Z,4.00
2019-01-11T16:43:35.365Z,4.10
2019-01-11T16:45:36.848Z,4.10
2019-01-11T16:47:38.306Z,4.10
2019-01-11T16:49:39.706Z,4.10
2019-01-11T16:51:41.202Z,4.10
2019-01-11T16:53:42.658Z,4.10
2019-01-11T16:55:44.060Z,4.20
2019-01-11T16:57:45.449Z,4.20
2019-01-11T16:59:46.897Z,4.10
2019-01-11T17:01:48.286Z,4.20
2019-01-11T17:03:49.689Z,4.20
2019-01-11T17:05:51.131Z,4.20
2019-01-11T17:07:52.522Z,4.20
2019-01-11T17:09:53.908Z,4.20
2019-01-11T17:11:55.379Z,4.30
2019-01-11T17:13:56.762Z,4.30
2019-01-11T17:15:58.234Z,4.30
2019-01-11T17:17:59.680Z,4.30
2019-01-11T17:20:01.142Z,4.40
2019-01-11T17:22:02.706Z,4.30
2019-01-11T17:24:04.074Z,4.40
2019-01-11T17:26:05.624Z,4.40
2019-01-11T17:28:07.016Z,4.40
2019-01-11T17:30:13.625Z,4.40
2019-01-11T17:32:15.024Z,4.40
2019-01-11T17:34:16.482Z,4.50
2019-01-11T17:36:18.100Z,4.50
2019-01-11T17:38:19.578Z,4.50
2019-01-11T17:40:20.964Z,4.50
2019-01-11T17:42:22.409Z,4.60
2019-01-11T17:44:23.857Z,4.60
2019-01-11T17:46:25.259Z,4.60
2019-01-11T17:48:26.709Z,4.70
2019-01-11T17:50:28.306Z,4.70
2019-01-11T17:52:29.657Z,4.70
2019-01-11T17:54:31.059Z,4.70
2019-01-11T17:56:32.649Z,4.80
2019-01-11T17:58:34.037Z,4.80
2019-01-11T18:00:35.710Z,4.80
2019-01-11T18:02:37.148Z,4.80
2019-01-11T18:04:38.536Z,4.80
2019-01-11T18:06:39.992Z,4.80
2019-01-11T18:08:41.377Z,4.80
2019-01-11T18:10:42.773Z,4.80
2019-01-11T18:12:44.213Z,4.90
2019-01-11T18:14:45.604Z,4.90
2019-01-11T18:16:47.068Z,4.90
2019-01-11T18:18:48.520Z,5.00
2019-01-11T18:20:49.881Z,5.00
2019-01-11T18:22:51.465Z,5.00
2019-01-11T18:24:52.903Z,5.10
2019-01-11T18:26:54.287Z,5.10
2019-01-11T18:28:55.662Z,5.10
2019-01-11T18:30:57.098Z,5.10
2019-01-11T18:32:58.481Z,5.10
2019-01-11T18:34:59.900Z,5.20
2019-01-11T18:37:01.720Z,5.20
2019-01-11T18:39:06.183Z,5.20
2019-01-11T18:41:07.575Z,5.20
2019-01-11T18:43:09.035Z,5.20
2019-01-11T18:45:10.714Z,5.20
2019-01-11T18:47:12.067Z,5.20
2019-01-11T18:49:13.678Z,5.20
2019-01-11T18:51:15.018Z,5.20
2019-01-11T18:53:16.435Z,5.20
2019-01-11T18:55:18.097Z,5.20
2019-01-11T18:57:19.586Z,5.20
2019-01-11T18:59:21.022Z,5.20
2019-01-11T19:01:22.395Z,5.20
2019-01-11T19:03:23.861Z,5.20
2019-01-11T19:05:27.856Z,5.20
2019-01-11T19:07:29.292Z,5.20
2019-01-11T19:09:30.815Z,5.20
2019-01-11T19:11:32.174Z,5.20
2019-01-11T19:13:33.619Z,5.20
2019-01-11T19:15:35.315Z,5.20
2019-01-11T19:17:36.787Z,5.20
2019-01-11T19:19:38.184Z,5.20
2019-01-11T19:21:39.872Z,5.20
2019-01-11T19:23:41.228Z,5.20
2019-01-11T19:25:42.612Z,5.10
2019-01-11T19:27:44.639Z,5.20
2019-01-11T19:29:45.997Z,5.20
2019-01-11T19:31:47.402Z,5.20
2019-01-11T19:33:48.856Z,5.20
2019-01-11T19:35:50.556Z,5.20
2019-01-11T19:37:52.021Z,5.20
2019-01-11T19:39:53.419Z,5.20
2019-01-11T19:41:54.878Z,5.10
2019-01-11T19:43:56.256Z,5.20
2019-01-11T19:45:57.636Z,5.20
2019-01-11T19:47:59.136Z,5.20
2019-01-11T19:50:00.512Z,5.10
2019-01-11T19:52:02.122Z,5.10
2019-01-11T19:54:03.869Z,5.10
2019-01-11T19:56:05.273Z,5.20
2019-01-11T19:58:06.665Z,5.10
2019-01-11T20:00:15.887Z,5.10
2019-01-11T20:02:17.261Z,5.10
2019-01-11T20:04:18.945Z,5.10
2019-01-11T20:06:20.331Z,5.10
2019-01-11T20:08:21.901Z,5.10
2019-01-11T20:10:29.438Z,5.10
2019-01-11T20:12:30.894Z,5.10
2019-01-11T20:14:32.538Z,5.10
2019-01-11T20:16:34.135Z,5.10
2019-01-11T20:18:35.524Z,5.10
2019-01-11T20:20:36.922Z,5.10
2019-01-11T20:22:38.649Z,5.10
2019-01-11T20:24:40.625Z,5.10
2019-01-11T20:26:42.005Z,5.10
2019-01-11T20:28:43.429Z,5.10
2019-01-11T20:30:44.863Z,5.00
2019-01-11T20:32:46.363Z,5.00
2019-01-11T20:34:47.811Z,5.00
2019-01-11T20:36:54.995Z,5.00
2019-01-11T20:38:56.458Z,5.00
2019-01-11T20:40:58.126Z,5.00
2019-01-11T20:42:59.502Z,5.00
2019-01-11T20:45:00.909Z,5.00
2019-01-11T20:47:02.675Z,5.00
2019-01-11T20:49:04.053Z,5.00
2019-01-11T20:51:05.491Z,5.00
2019-01-11T20:53:07.135Z,5.00
2019-01-11T20:55:09.515Z,5.00
2019-01-11T20:57:10.922Z,5.00
2019-01-11T20:59:12.518Z,5.00
2019-01-11T21:01:14.399Z,5.00
2019-01-11T21:03:15.989Z,5.00
2019-01-11T21:05:17.876Z,4.90
2019-01-11T21:07:19.254Z,4.90
2019-01-11T21:09:20.630Z,4.90
2019-01-11T21:11:22.084Z,4.90
2019-01-11T21:13:23.612Z,4.90
2019-01-11T21:15:25.378Z,4.90
2019-01-11T21:17:26.762Z,4.90
2019-01-11T21:19:28.463Z,4.90
2019-01-11T21:21:29.951Z,4.90
2019-01-11T21:23:31.336Z,4.90
2019-01-11T21:25:32.779Z,4.90
2019-01-11T21:27:34.258Z,4.90
2019-01-11T21:29:35.703Z,4.90
2019-01-11T21:31:37.093Z,4.90
2019-01-11T21:33:38.477Z,4.90
2019-01-11T21:35:40.180Z,4.90
2019-01-11T21:37:41.675Z,4.90
2019-01-11T21:39:43.049Z,4.90
2019-01-11T21:41:44.498Z,4.90
2019-01-11T21:43:45.880Z,4.90
2019-01-11T21:45:47.264Z,4.90
2019-01-11T21:47:48.692Z,4.90
2019-01-11T21:49:50.063Z,4.90
2019-01-11T21:51:51.435Z,4.90
2019-01-11T21:53:55.832Z,4.90
2019-01-11T21:55:56.138Z,4.90
2019-01-11T21:57:57.540Z,4.90
2019-01-11T21:59:58.969Z,4.90
2019-01-11T22:02:00.357Z,4.90
2019-01-11T22:04:01.746Z,4.90
2019-01-11T22:06:03.581Z,4.90
2019-01-11T22:08:05.069Z,4.90
2019-01-11T22:10:11.661Z,4.90
2019-01-11T22:12:13.121Z,4.90
2019-01-11T22:14:14.556Z,4.90
2019-01-11T22:16:15.939Z,4.90
2019-01-11T22:18:17.400Z,4.90
2019-01-11T22:20:18.876Z,4.90
2019-01-11T22:22:20.305Z,4.90
2019-01-11T22:24:21.751Z,4.90
2019-01-11T22:26:23.347Z,4.90
2019-01-11T22:28:24.725Z,4.90
2019-01-11T22:30:30.155Z,4.90
2019-01-11T22:32:29.745Z,4.90
2019-01-11T22:34:31.132Z,4.90
2019-01-11T22:36:32.514Z,4.90
2019-01-11T22:38:33.959Z,4.90
2019-01-11T22:40:35.336Z,4.90
2019-01-11T22:42:36.731Z,4.90
2019-01-11T22:44:38.406Z,4.90
2019-01-11T22:46:39.824Z,4.90
2019-01-11T22:48:41.213Z,4.80
2019-01-11T22:50:42.655Z,4.90
2019-01-11T22:52:44.266Z,4.90
2019-01-11T22:54:45.661Z,4.90
2019-01-11T22:56:47.121Z,4.90
2019-01-11T22:58:48.810Z,4.90
2019-01-11T23:01:10.997Z,4.90
2019-01-11T23:03:26.630Z,4.90
2019-01-11T23:05:28.014Z,4.90
2019-01-11T23:07:31.903Z,4.90
2019-01-11T23:09:38.329Z,4.80
2019-01-11T23:12:03.518Z,4.80
2019-01-11T23:14:05.456Z,4.80
2019-01-11T23:16:11.254Z,4.90
2019-01-11T23:18:12.614Z,4.80
2019-01-11T23:20:14.159Z,4.80
2019-01-11T23:22:15.540Z,4.80
2019-01-11T23:24:17.560Z,4.80
2019-01-11T23:26:19.214Z,4.80
2019-01-11T23:28:20.652Z,4.80
2019-01-11T23:30:22.076Z,4.80
2019-01-11T23:32:23.448Z,4.80
2019-01-11T23:34:24.864Z,4.80
2019-01-11T23:36:26.266Z,4.90
2019-01-11T23:38:27.653Z,4.80
2019-01-11T23:40:29.059Z,4.80
2019-01-11T23:42:30.477Z,4.80
2019-01-11T23:44:31.858Z,4.80
2019-01-11T23:46:33.298Z,4.80
2019-01-11T23:48:34.701Z,4.80
2019-01-11T23:50:36.096Z,4.80
2019-01-11T23:52:37.470Z,4.80
2019-01-11T23:54:38.867Z,4.80
2019-01-11T23:56:40.250Z,4.80
2019-01-11T23:58:41.635Z,4.80
